sensor_id;sensor_type;location;lat;lon;timestamp;pressure;altitude;pressure_sealevel;temperature;humidity
62122;BME280;48108;47.532;19.084;2024-02-15T04:59:13;69211.78;;;6.27;100.00
62122;BME280;48108;47.532;19.084;2024-02-15T05:02:19;69215.31;;;6.25;100.00
62122;BME280;48108;47.532;19.084;2024-02-15T05:05:22;69208.88;;;6.24;100.00
62122;BME280;48108;47.532;19.084;2024-02-15T05:08:26;69211.44;;;6.29;100.00
62122;BME280;48108;47.532;19.084;2024-02-15T05:11:30;69210.94;;;6.24;100.00
62122;BME280;48108;47.532;19.084;2024-02-15T05:14:33;69213.16;;;6.30;100.00
62122;BME280;48108;47.532;19.084;2024-02-15T05:17:41;69222.53;;;6.34;100.00
62122;BME280;48108;47.532;19.084;2024-02-15T05:20:45;69217.56;;;6.32;100.00
62122;BME280;48108;47.532;19.084;2024-02-15T05:23:48;69237.59;;;6.47;100.00
62122;BME280;48108;47.532;19.084;2024-02-15T05:26:51;69222.44;;;6.39;100.00
62122;BME280;48108;47.532;19.084;2024-02-15T05:29:55;69220.13;;;6.36;100.00
62122;BME280;48108;47.532;19.084;2024-02-15T05:32:58;69215.25;;;6.30;100.00
62122;BME280;48108;47.532;19.084;2024-02-15T05:36:01;69205.28;;;6.26;100.00
62122;BME280;48108;47.532;19.084;2024-02-15T05:39:04;69207.47;;;6.21;100.00
62122;BME280;48108;47.532;19.084;2024-02-15T05:42:08;69207.38;;;6.25;100.00
62122;BME280;48108;47.532;19.084;2024-02-15T05:48:28;69202.75;;;6.21;100.00
62122;BME280;48108;47.532;19.084;2024-02-15T05:51:31;69209.44;;;6.25;100.00
62122;BME280;48108;47.532;19.084;2024-02-15T05:54:34;69212.34;;;6.27;100.00
62122;BME280;48108;47.532;19.084;2024-02-15T05:57:37;69211.78;;;6.27;100.00
62122;BME280;48108;47.532;19.084;2024-02-15T06:00:40;69220.78;;;6.32;100.00
62122;BME280;48108;47.532;19.084;2024-02-15T06:03:44;69215.81;;;6.30;100.00
62122;BME280;48108;47.532;19.084;2024-02-15T06:06:47;69211.78;;;6.27;100.00
62122;BME280;48108;47.532;19.084;2024-02-15T06:09:53;69233.75;;;6.46;100.00
62122;BME280;48108;47.532;19.084;2024-02-15T06:12:56;69237.59;;;6.47;100.00
62122;BME280;48108;47.532;19.084;2024-02-15T06:16:02;69225.91;;;6.42;100.00
62122;BME280;48108;47.532;19.084;2024-02-15T06:19:05;69227.63;;;6.43;100.00
62122;BME280;48108;47.532;19.084;2024-02-15T06:22:08;69222.19;;;6.36;100.00
62122;BME280;48108;47.532;19.084;2024-02-15T06:25:12;69220.69;;;6.37;100.00
62122;BME280;48108;47.532;19.084;2024-02-15T06:28:16;69234.69;;;6.45;100.00
62122;BME280;48108;47.532;19.084;2024-02-15T06:31:42;69230.88;;;6.44;100.00
62122;BME280;48108;47.532;19.084;2024-02-15T06:35:03;69238.41;;;6.50;100.00
62122;BME280;48108;47.532;19.084;2024-02-15T06:38:25;69236.09;;;6.48;100.00
62122;BME280;48108;47.532;19.084;2024-02-15T06:41:46;69236.91;;;6.51;100.00
62122;BME280;48108;47.532;19.084;2024-02-15T06:44:49;69249.16;;;6.57;100.00
62122;BME280;48108;47.532;19.084;2024-02-15T06:47:52;69259.00;;;6.66;100.00
62122;BME280;48108;47.532;19.084;2024-02-15T06:50:55;69256.34;;;6.66;100.00
62122;BME280;48108;47.532;19.084;2024-02-15T06:53:58;69248.81;;;6.59;100.00
62122;BME280;48108;47.532;19.084;2024-02-15T06:57:02;69251.97;;;6.65;100.00
62122;BME280;48108;47.532;19.084;2024-02-15T07:00:09;69254.06;;;6.64;100.00
62122;BME280;48108;47.532;19.084;2024-02-15T07:03:12;69250.56;;;6.61;100.00
62122;BME280;48108;47.532;19.084;2024-02-15T07:06:15;69273.16;;;6.81;100.00
62122;BME280;48108;47.532;19.084;2024-02-15T07:09:23;69274.31;;;6.82;100.00
62122;BME280;48108;47.532;19.084;2024-02-15T07:12:27;69276.63;;;6.84;100.00
62122;BME280;48108;47.532;19.084;2024-02-15T07:15:30;69273.97;;;6.84;100.00
62122;BME280;48108;47.532;19.084;2024-02-15T07:18:36;69287.88;;;6.96;100.00
62122;BME280;48108;47.532;19.084;2024-02-15T07:21:40;69299.81;;;7.04;100.00
62122;BME280;48108;47.532;19.084;2024-02-15T07:24:43;69305.94;;;7.08;100.00
62122;BME280;48108;47.532;19.084;2024-02-15T07:27:46;69287.88;;;6.96;100.00
62122;BME280;48108;47.532;19.084;2024-02-15T07:30:52;69290.53;;;6.96;100.00
62122;BME280;48108;47.532;19.084;2024-02-15T07:33:59;69301.56;;;7.06;100.00
62122;BME280;48108;47.532;19.084;2024-02-15T07:37:03;69298.66;;;7.03;100.00
62122;BME280;48108;47.532;19.084;2024-02-15T07:40:07;69305.59;;;7.10;100.00
62122;BME280;48108;47.532;19.084;2024-02-15T07:43:11;69307.00;;;7.13;100.00
62122;BME280;48108;47.532;19.084;2024-02-15T07:46:15;69324.47;;;7.24;100.00
62122;BME280;48108;47.532;19.084;2024-02-15T07:49:19;69317.78;;;7.20;100.00
62122;BME280;48108;47.532;19.084;2024-02-15T07:52:22;69329.94;;;7.31;100.00
62122;BME280;48108;47.532;19.084;2024-02-15T07:55:25;69388.63;;;7.34;100.00
62122;BME280;48108;47.532;19.084;2024-02-15T07:58:28;69333.75;;;7.32;100.00
62122;BME280;48108;47.532;19.084;2024-02-15T08:01:31;69352.28;;;7.48;100.00
62122;BME280;48108;47.532;19.084;2024-02-15T08:04:37;69341.53;;;7.41;100.00
62122;BME280;48108;47.532;19.084;2024-02-15T08:07:44;69344.69;;;7.46;100.00
62122;BME280;48108;47.532;19.084;2024-02-15T08:10:48;69351.16;;;7.47;100.00
62122;BME280;48108;47.532;19.084;2024-02-15T08:13:53;69355.09;;;7.56;100.00
62122;BME280;48108;47.532;19.084;2024-02-15T08:16:57;69362.97;;;7.60;100.00
62122;BME280;48108;47.532;19.084;2024-02-15T08:20:00;69355.09;;;7.56;100.00
62122;BME280;48108;47.532;19.084;2024-02-15T08:23:03;69365.88;;;7.63;100.00
62122;BME280;48108;47.532;19.084;2024-02-15T08:26:06;69390.47;;;7.87;100.00
62122;BME280;48108;47.532;19.084;2024-02-15T08:29:11;69403.34;;;7.93;100.00
62122;BME280;48108;47.532;19.084;2024-02-15T08:32:14;69417.59;;;8.04;100.00
62122;BME280;48108;47.532;19.084;2024-02-15T08:35:17;69387.34;;;7.82;100.00
62122;BME280;48108;47.532;19.084;2024-02-15T08:38:23;69392.53;;;7.86;100.00
62122;BME280;48108;47.532;19.084;2024-02-15T08:41:27;69406.47;;;7.99;100.00
62122;BME280;48108;47.532;19.084;2024-02-15T08:44:30;69412.84;;;8.04;100.00
62122;BME280;48108;47.532;19.084;2024-02-15T08:47:39;69429.91;;;8.22;100.00
62122;BME280;48108;47.532;19.084;2024-02-15T08:50:42;69437.22;;;8.26;100.00
62122;BME280;48108;47.532;19.084;2024-02-15T08:53:48;69448.22;;;8.35;100.00
62122;BME280;48108;47.532;19.084;2024-02-15T08:56:51;69463.66;;;8.47;100.00
62122;BME280;48108;47.532;19.084;2024-02-15T08:59:54;69467.97;;;8.53;100.00
62122;BME280;48108;47.532;19.084;2024-02-15T09:02:57;69461.25;;;8.49;100.00
62122;BME280;48108;47.532;19.084;2024-02-15T09:06:01;69481.91;;;8.65;100.00
62122;BME280;48108;47.532;19.084;2024-02-15T09:09:06;69479.22;;;8.65;100.00
62122;BME280;48108;47.532;19.084;2024-02-15T09:12:11;69495.25;;;8.77;100.00
62122;BME280;48108;47.532;19.084;2024-02-15T09:15:15;69514.63;;;8.96;100.00
62122;BME280;48108;47.532;19.084;2024-02-15T09:18:18;69512.44;;;8.90;100.00
62122;BME280;48108;47.532;19.084;2024-02-15T09:21:25;69524.03;;;9.00;100.00
62122;BME280;48108;47.532;19.084;2024-02-15T09:24:31;69543.19;;;9.17;100.00
62122;BME280;48108;47.532;19.084;2024-02-15T09:27:36;69546.44;;;9.17;100.00
62122;BME280;48108;47.532;19.084;2024-02-15T09:30:39;69540.28;;;9.14;100.00
62122;BME280;48108;47.532;19.084;2024-02-15T09:33:42;69569.06;;;9.37;100.00
62122;BME280;48108;47.532;19.084;2024-02-15T09:36:45;69573.84;;;9.48;100.00
62122;BME280;48108;47.532;19.084;2024-02-15T09:39:50;69583.72;;;9.57;100.00
62122;BME280;48108;47.532;19.084;2024-02-15T09:42:53;69580.00;;;9.51;100.00
62122;BME280;48108;47.532;19.084;2024-02-15T09:45:56;69575.94;;;9.48;100.00
62122;BME280;48108;47.532;19.084;2024-02-15T09:49:01;69596.84;;;9.66;100.00
62122;BME280;48108;47.532;19.084;2024-02-15T09:52:07;69594.63;;;9.60;100.00
62122;BME280;48108;47.532;19.084;2024-02-15T09:55:18;69569.31;;;9.40;100.00
62122;BME280;48108;47.532;19.084;2024-02-15T09:58:21;69575.59;;;9.50;100.00
62122;BME280;48108;47.532;19.084;2024-02-15T10:01:27;69604.16;;;9.70;100.00
62122;BME280;48108;47.532;19.084;2024-02-15T10:04:33;69601.47;;;9.70;100.00
62122;BME280;48108;47.532;19.084;2024-02-15T10:07:41;69632.03;;;9.95;100.00
62122;BME280;48108;47.532;19.084;2024-02-15T10:10:47;69650.03;;;10.11;100.00
62122;BME280;48108;47.532;19.084;2024-02-15T10:13:50;69623.91;;;9.88;100.00
62122;BME280;48108;47.532;19.084;2024-02-15T10:16:54;69633.09;;;10.01;100.00
62122;BME280;48108;47.532;19.084;2024-02-15T10:20:04;69671.78;;;10.32;100.00
62122;BME280;48108;47.532;19.084;2024-02-15T10:23:12;69694.47;;;10.52;100.00
62122;BME280;48108;47.532;19.084;2024-02-15T10:26:19;69671.22;;;10.32;98.35
62122;BME280;48108;47.532;19.084;2024-02-15T10:29:25;69724.34;;;10.81;97.96
62122;BME280;48108;47.532;19.084;2024-02-15T10:32:34;69767.47;;;11.14;94.62
62122;BME280;48108;47.532;19.084;2024-02-15T10:35:37;69772.38;;;11.21;91.70
62122;BME280;48108;47.532;19.084;2024-02-15T10:38:40;69772.38;;;11.21;89.79
62122;BME280;48108;47.532;19.084;2024-02-15T10:41:45;69799.81;;;11.40;88.09
62122;BME280;48108;47.532;19.084;2024-02-15T10:44:51;69821.81;;;11.64;84.69
62122;BME280;48108;47.532;19.084;2024-02-15T10:47:55;69771.56;;;11.18;86.59
62122;BME280;48108;47.532;19.084;2024-02-15T10:50:59;69804.09;;;11.46;84.47
62122;BME280;48108;47.532;19.084;2024-02-15T10:54:07;69812.13;;;11.58;81.96
62122;BME280;48108;47.532;19.084;2024-02-15T10:57:18;69823.31;;;11.63;82.82
62122;BME280;48108;47.532;19.084;2024-02-15T11:00:26;69802.38;;;11.45;80.87
62122;BME280;48108;47.532;19.084;2024-02-15T11:03:45;69801.44;;;11.46;82.37
62122;BME280;48108;47.532;19.084;2024-02-15T11:06:55;69778.53;;;11.24;83.17
62122;BME280;48108;47.532;19.084;2024-02-15T11:09:59;69825.50;;;11.70;82.70
62122;BME280;48108;47.532;19.084;2024-02-15T11:13:04;69819.81;;;11.60;81.42
62122;BME280;48108;47.532;19.084;2024-02-15T11:16:07;69815.16;;;11.56;84.04
62122;BME280;48108;47.532;19.084;2024-02-15T11:19:10;69857.88;;;11.96;82.22
62122;BME280;48108;47.532;19.084;2024-02-15T11:22:14;69882.91;;;12.18;77.54
62122;BME280;48108;47.532;19.084;2024-02-15T11:25:31;69884.44;;;12.17;77.56
62122;BME280;48108;47.532;19.084;2024-02-15T11:28:37;69914.34;;;12.45;75.58
62122;BME280;48108;47.532;19.084;2024-02-15T11:31:53;69916.69;;;12.47;79.28
62122;BME280;48108;47.532;19.084;2024-02-15T11:35:26;69946.13;;;12.71;73.94
62122;BME280;48108;47.532;19.084;2024-02-15T11:38:31;69942.63;;;12.68;74.56
62122;BME280;48108;47.532;19.084;2024-02-15T11:41:34;69961.28;;;12.84;73.67
62122;BME280;48108;47.532;19.084;2024-02-15T11:44:37;69960.69;;;12.84;73.51
62122;BME280;48108;47.532;19.084;2024-02-15T11:47:40;69891.88;;;12.28;74.20
62122;BME280;48108;47.532;19.084;2024-02-15T11:50:46;69951.97;;;12.76;72.98
62122;BME280;48108;47.532;19.084;2024-02-15T11:54:01;69935.31;;;12.64;70.50
62122;BME280;48108;47.532;19.084;2024-02-15T11:57:08;69966.75;;;12.91;69.76
62122;BME280;48108;47.532;19.084;2024-02-15T12:00:21;69991.00;;;13.10;69.22
62122;BME280;48108;47.532;19.084;2024-02-15T12:03:43;70009.06;;;13.26;67.74
62122;BME280;48108;47.532;19.084;2024-02-15T12:07:10;69962.44;;;12.85;65.51
62122;BME280;48108;47.532;19.084;2024-02-15T12:10:32;69990.38;;;13.10;64.12
62122;BME280;48108;47.532;19.084;2024-02-15T12:13:53;69993.31;;;13.12;63.51
62122;BME280;48108;47.532;19.084;2024-02-15T12:17:15;70002.63;;;13.21;62.45
62122;BME280;48108;47.532;19.084;2024-02-15T12:20:36;69986.19;;;13.11;62.37
62122;BME280;48108;47.532;19.084;2024-02-15T12:23:39;69979.31;;;13.00;62.72
62122;BME280;48108;47.532;19.084;2024-02-15T12:26:44;69928.09;;;12.55;62.11
62122;BME280;48108;47.532;19.084;2024-02-15T12:29:59;69960.34;;;12.86;62.90
62122;BME280;48108;47.532;19.084;2024-02-15T12:33:12;69963.03;;;12.86;62.37
62122;BME280;48108;47.532;19.084;2024-02-15T12:36:23;69937.38;;;12.63;64.35
62122;BME280;48108;47.532;19.084;2024-02-15T12:39:26;69933.22;;;12.64;63.17
62122;BME280;48108;47.532;19.084;2024-02-15T12:42:31;69961.63;;;12.82;63.36
62122;BME280;48108;47.532;19.084;2024-02-15T12:45:38;69967.91;;;12.92;61.85
62122;BME280;48108;47.532;19.084;2024-02-15T12:48:42;69955.09;;;12.81;59.86
62122;BME280;48108;47.532;19.084;2024-02-15T12:51:50;69951.38;;;12.76;62.49
62122;BME280;48108;47.532;19.084;2024-02-15T12:55:15;69920.75;;;12.51;61.56
62122;BME280;48108;47.532;19.084;2024-02-15T12:58:19;69948.81;;;12.71;64.41
62122;BME280;48108;47.532;19.084;2024-02-15T13:01:22;69946.72;;;12.71;63.79
62122;BME280;48108;47.532;19.084;2024-02-15T13:04:26;69939.38;;;12.67;64.08
62122;BME280;48108;47.532;19.084;2024-02-15T13:07:30;69890.13;;;12.27;64.04
62122;BME280;48108;47.532;19.084;2024-02-15T13:10:34;69893.63;;;12.30;65.80
62122;BME280;48108;47.532;19.084;2024-02-15T13:13:39;69915.28;;;12.44;65.10
62122;BME280;48108;47.532;19.084;2024-02-15T13:16:44;69933.91;;;12.60;66.45
62122;BME280;48108;47.532;19.084;2024-02-15T13:19:49;69909.22;;;12.36;66.34
62122;BME280;48108;47.532;19.084;2024-02-15T13:22:52;69904.09;;;12.39;65.41
62122;BME280;48108;47.532;19.084;2024-02-15T13:25:55;69924.00;;;12.52;64.99
62122;BME280;48108;47.532;19.084;2024-02-15T13:28:59;69884.06;;;12.19;66.30
62122;BME280;48108;47.532;19.084;2024-02-15T13:32:03;69910.03;;;12.39;66.62
62122;BME280;48108;47.532;19.084;2024-02-15T13:35:09;69895.97;;;12.32;66.66
62122;BME280;48108;47.532;19.084;2024-02-15T13:38:22;69909.69;;;12.41;65.27
62122;BME280;48108;47.532;19.084;2024-02-15T13:41:27;69893.16;;;12.24;68.07
62122;BME280;48108;47.532;19.084;2024-02-15T13:44:30;69919.69;;;12.45;65.56
62122;BME280;48108;47.532;19.084;2024-02-15T13:47:33;69909.34;;;12.43;64.93
62122;BME280;48108;47.532;19.084;2024-02-15T13:50:37;69919.94;;;12.48;67.32
62122;BME280;48108;47.532;19.084;2024-02-15T13:53:42;69908.53;;;12.40;65.22
62122;BME280;48108;47.532;19.084;2024-02-15T13:56:46;69894.78;;;12.31;66.14
62122;BME280;48108;47.532;19.084;2024-02-15T13:59:50;69885.47;;;12.22;67.92
62122;BME280;48108;47.532;19.084;2024-02-15T14:02:54;69885.03;;;12.17;65.20
62122;BME280;48108;47.532;19.084;2024-02-15T14:05:57;69866.97;;;12.01;66.34
62122;BME280;48108;47.532;19.084;2024-02-15T14:09:00;69843.09;;;11.80;68.45
62122;BME280;48108;47.532;19.084;2024-02-15T14:12:04;69843.66;;;11.81;67.96
62122;BME280;48108;47.532;19.084;2024-02-15T14:15:08;69834.00;;;11.75;68.02
62122;BME280;48108;47.532;19.084;2024-02-15T14:18:12;69827.84;;;11.72;68.33
62122;BME280;48108;47.532;19.084;2024-02-15T14:21:23;69810.16;;;11.54;70.11
62122;BME280;48108;47.532;19.084;2024-02-15T14:24:29;69816.66;;;11.55;70.14
62122;BME280;48108;47.532;19.084;2024-02-15T14:27:31;69807.25;;;11.51;70.31
62122;BME280;48108;47.532;19.084;2024-02-15T14:30:35;69830.88;;;11.70;71.11
62122;BME280;48108;47.532;19.084;2024-02-15T14:33:57;69819.72;;;11.65;68.58
62122;BME280;48108;47.532;19.084;2024-02-15T14:37:00;69819.81;;;11.60;69.45
62122;BME280;48108;47.532;19.084;2024-02-15T14:40:04;69816.09;;;11.54;71.30
62122;BME280;48108;47.532;19.084;2024-02-15T14:43:09;69807.25;;;11.51;72.07
62122;BME280;48108;47.532;19.084;2024-02-15T14:46:20;69785.28;;;11.27;72.14
62122;BME280;48108;47.532;19.084;2024-02-15T14:49:23;69755.84;;;11.04;73.57
62122;BME280;48108;47.532;19.084;2024-02-15T14:52:27;69756.44;;;11.04;73.40
62122;BME280;48108;47.532;19.084;2024-02-15T14:55:30;69762.59;;;11.07;73.49
62122;BME280;48108;47.532;19.084;2024-02-15T14:58:35;69735.50;;;10.86;75.35
62122;BME280;48108;47.532;19.084;2024-02-15T15:01:41;69731.78;;;10.80;76.68
62122;BME280;48108;47.532;19.084;2024-02-15T15:04:44;69729.91;;;10.83;76.77
62122;BME280;48108;47.532;19.084;2024-02-15T15:08:00;69724.09;;;10.78;78.31
62122;BME280;48108;47.532;19.084;2024-02-15T15:11:22;69718.88;;;10.74;77.81
62122;BME280;48108;47.532;19.084;2024-02-15T15:14:43;69699.47;;;10.54;81.20
62122;BME280;48108;47.532;19.084;2024-02-15T15:17:48;69692.16;;;10.50;81.95
62122;BME280;48108;47.532;19.084;2024-02-15T15:20:55;69689.00;;;10.45;82.24
62122;BME280;48108;47.532;19.084;2024-02-15T15:23:58;69688.19;;;10.42;82.75
62122;BME280;48108;47.532;19.084;2024-02-15T15:27:01;69691.66;;;10.45;82.86
62122;BME280;48108;47.532;19.084;2024-02-15T15:30:05;69666.00;;;10.27;83.61
62122;BME280;48108;47.532;19.084;2024-02-15T15:33:08;69673.88;;;10.32;84.06
62122;BME280;48108;47.532;19.084;2024-02-15T15:36:11;69665.41;;;10.27;84.61
62122;BME280;48108;47.532;19.084;2024-02-15T15:39:15;69663.63;;;10.25;85.23
62122;BME280;48108;47.532;19.084;2024-02-15T15:42:19;69650.63;;;10.11;87.02
62122;BME280;48108;47.532;19.084;2024-02-15T15:45:22;69641.31;;;10.03;89.32
62122;BME280;48108;47.532;19.084;2024-02-15T15:48:26;69635.97;;;10.03;88.30
62122;BME280;48108;47.532;19.084;2024-02-15T15:51:29;69634.59;;;9.99;88.07
62122;BME280;48108;47.532;19.084;2024-02-15T15:54:32;69630.53;;;9.96;88.44
62122;BME280;48108;47.532;19.084;2024-02-15T15:57:40;69636.09;;;9.98;88.58
62122;BME280;48108;47.532;19.084;2024-02-15T16:00:44;69631.09;;;9.96;87.56
62122;BME280;48108;47.532;19.084;2024-02-15T16:03:50;69613.91;;;9.84;90.31
62122;BME280;48108;47.532;19.084;2024-02-15T16:06:54;69612.75;;;9.83;90.72
62122;BME280;48108;47.532;19.084;2024-02-15T16:09:57;69587.22;;;9.60;92.68
62122;BME280;48108;47.532;19.084;2024-02-15T16:13:00;69598.94;;;9.66;92.67
62122;BME280;48108;47.532;19.084;2024-02-15T16:16:04;69601.84;;;9.68;92.74
62122;BME280;48108;47.532;19.084;2024-02-15T16:19:08;69596.25;;;9.66;92.87
62122;BME280;48108;47.532;19.084;2024-02-15T16:22:11;69595.09;;;9.65;93.01
62122;BME280;48108;47.532;19.084;2024-02-15T16:25:14;69586.38;;;9.57;94.85
62122;BME280;48108;47.532;19.084;2024-02-15T16:28:17;69581.72;;;9.53;96.89
62122;BME280;48108;47.532;19.084;2024-02-15T16:31:20;69574.19;;;9.46;96.64
62122;BME280;48108;47.532;19.084;2024-02-15T16:34:24;69578.25;;;9.50;97.49
62122;BME280;48108;47.532;19.084;2024-02-15T16:37:27;69584.88;;;9.58;95.93
62122;BME280;48108;47.532;19.084;2024-02-15T16:40:30;69585.56;;;9.54;96.09
62122;BME280;48108;47.532;19.084;2024-02-15T16:43:33;69574.53;;;9.44;97.18
62122;BME280;48108;47.532;19.084;2024-02-15T16:46:36;69582.91;;;9.54;95.42
62122;BME280;48108;47.532;19.084;2024-02-15T16:49:39;69581.16;;;9.52;95.90
62122;BME280;48108;47.532;19.084;2024-02-15T16:52:43;69580.00;;;9.51;98.58
62122;BME280;48108;47.532;19.084;2024-02-15T16:55:46;69579.75;;;9.49;98.41
62122;BME280;48108;47.532;19.084;2024-02-15T16:58:49;69577.66;;;9.49;98.25
